Time;durP1;ratioP1;P1;durP2;ratioP2;P2;SDS_P1;SDS_P2;PMS_P1;PMS_P2;Temp;Humidity;BMP_temperature;BMP_pressure;BME280_temperature;BME280_humidity;BME280_pressure;Samples;Min_cycle;Max_cycle;Signal;HPM_P1;HPM_P2
2022/06/12 00:00:28;;;;;;;625.80;596.15;;;17.30;99.90;;;17.20;100.00;100977.88;5022641;28;20206;-64
2022/06/12 00:02:59;;;;;;;638.05;607.63;;;17.30;99.90;;;16.97;100.00;100978.09;5024373;28;20197;-64
2022/06/12 00:05:32;;;;;;;612.35;583.65;;;17.10;99.90;;;16.76;100.00;100979.13;5027231;28;20231;-64
2022/06/12 00:08:02;;;;;;;633.88;603.22;;;17.10;99.90;;;16.60;100.00;100982.75;5006198;28;20340;-64
2022/06/12 00:10:30;;;;;;;651.63;620.70;;;16.80;99.90;;;16.68;100.00;101005.00;5004999;28;20214;-64
2022/06/12 00:12:59;;;;;;;653.70;622.08;;;16.80;99.90;;;16.93;100.00;101024.44;5007131;28;20206;-64
2022/06/12 00:15:29;;;;;;;686.88;652.88;;;16.80;99.90;;;17.03;100.00;101038.63;5015604;28;20220;-64
2022/06/12 00:17:59;;;;;;;690.58;656.55;;;16.90;99.90;;;16.90;100.00;101040.44;5019043;28;20237;-64
2022/06/12 00:20:28;;;;;;;655.40;623.70;;;16.90;99.90;;;17.07;100.00;101048.38;5007832;28;20225;-64
2022/06/12 00:22:57;;;;;;;709.67;673.67;;;16.90;99.90;;;17.05;100.00;101056.41;5028962;28;20214;-64
2022/06/12 00:25:30;;;;;;;659.95;626.97;;;16.90;99.90;;;16.85;100.00;101055.63;5029454;28;20244;-65
2022/06/12 00:27:58;;;;;;;648.55;616.38;;;16.90;99.90;;;16.76;100.00;101039.66;5029760;28;20201;-64
2022/06/12 00:30:27;;;;;;;630.90;600.40;;;16.80;99.90;;;16.86;100.00;101060.97;5031024;28;20662;-64
2022/06/12 00:32:55;;;;;;;625.50;595.15;;;16.80;99.90;;;16.95;100.00;101068.94;5019750;28;20198;-65
2022/06/12 00:35:33;;;;;;;657.00;625.35;;;16.90;99.90;;;16.91;100.00;101074.31;5033500;28;20222;-65
2022/06/12 00:38:02;;;;;;;647.42;616.70;;;16.90;99.90;;;16.91;100.00;101071.66;5022462;28;20218;-64
2022/06/12 00:40:30;;;;;;;637.97;606.95;;;16.80;99.90;;;16.98;100.00;101086.75;5027454;28;20221;-64
2022/06/12 00:43:03;;;;;;;624.78;594.78;;;16.80;99.90;;;16.83;100.00;101074.34;5002347;28;20243;-64
2022/06/12 00:45:46;;;;;;;675.10;642.17;;;16.80;99.90;;;16.80;100.00;101077.03;5004784;28;20226;-64
2022/06/12 00:48:25;;;;;;;681.40;647.50;;;16.80;99.90;;;16.89;100.00;101109.03;5025767;28;20210;-65
2022/06/12 00:51:06;;;;;;;664.47;631.80;;;16.70;99.90;;;16.89;100.00;101114.38;5027686;28;20218;-64
2022/06/12 00:53:48;;;;;;;656.80;624.75;;;16.80;99.90;;;16.88;100.00;101115.28;5060014;28;20202;-63
2022/06/12 00:56:31;;;;;;;670.97;639.10;;;16.80;99.90;;;16.77;100.00;101110.88;5030072;28;20204;-64
2022/06/12 00:59:11;;;;;;;667.50;634.78;;;16.80;99.90;;;16.38;100.00;101096.81;5024829;28;20213;-64
2022/06/12 01:01:46;;;;;;;677.78;644.67;;;16.60;99.90;;;16.36;100.00;101117.28;5026212;28;20226;-64
2022/06/12 01:07:07;;;;;;;679.10;644.92;;;16.40;99.90;;;16.32;100.00;101142.22;5023506;28;20233;-64
2022/06/12 01:09:41;;;;;;;678.15;644.90;;;16.40;99.90;;;16.40;100.00;101140.41;5020146;28;20225;-64
2022/06/12 01:12:22;;;;;;;686.40;651.88;;;16.40;99.90;;;16.57;100.00;101159.91;5023543;28;20225;-64
2022/06/12 01:14:57;;;;;;;684.60;650.17;;;16.40;99.90;;;16.68;100.00;101161.69;5026911;28;20217;-65
2022/06/12 01:17:27;;;;;;;683.10;648.58;;;16.40;99.90;;;16.62;100.00;101155.44;5008966;28;20578;-65
2022/06/12 01:20:04;;;;;;;659.58;626.70;;;16.50;99.90;;;16.59;100.00;101175.94;5011789;28;20213;-64
2022/06/12 01:23:21;;;;;;;716.97;679.92;;;16.50;99.90;;;16.63;100.00;101183.91;5021506;28;20590;-64
2022/06/12 01:26:13;;;;;;;715.45;678.25;;;16.40;99.90;;;16.53;100.00;101179.50;5051282;28;20220;-65
2022/06/12 01:29:24;;;;;;;712.40;675.13;;;16.40;99.90;;;16.53;100.00;101191.97;5030335;28;20202;-65
2022/06/12 01:32:00;;;;;;;719.67;681.75;;;16.40;99.90;;;16.37;100.00;101193.78;5016951;28;20222;-65
2022/06/12 01:35:11;;;;;;;714.33;677.38;;;16.40;99.90;;;16.45;100.00;101200.00;5059787;28;20205;-64
2022/06/12 01:37:56;;;;;;;710.17;672.65;;;16.40;99.90;;;16.41;100.00;101200.00;5013303;28;20203;-65
2022/06/12 01:40:38;;;;;;;648.85;617.05;;;16.30;99.90;;;16.47;100.00;101200.88;5023481;28;20207;-65
2022/06/12 01:43:35;;;;;;;643.70;612.05;;;16.30;99.90;;;16.41;100.00;101203.56;4996276;28;20202;-65
2022/06/12 01:46:23;;;;;;;650.35;619.00;;;16.40;99.90;;;16.38;100.00;101213.38;5001674;28;20222;-64
2022/06/12 01:49:16;;;;;;;669.50;635.92;;;16.30;99.90;;;16.30;100.00;101218.72;5049761;28;20654;-65
2022/06/12 01:52:23;;;;;;;650.42;618.72;;;16.30;99.90;;;16.33;100.00;101219.59;5025355;28;20222;-64
2022/06/12 01:54:59;;;;;;;666.53;633.53;;;16.30;99.90;;;16.17;100.00;101223.19;5022573;28;20207;-65
2022/06/12 01:58:14;;;;;;;655.05;623.58;;;16.30;99.90;;;15.92;100.00;101230.34;5011009;28;20204;-64
2022/06/12 02:00:55;;;;;;;661.22;627.67;;;16.10;99.90;;;15.74;100.00;101237.44;4968502;28;20229;-64
2022/06/12 02:03:35;;;;;;;656.28;623.97;;;16.00;99.90;;;15.73;100.00;101246.34;5012014;28;20218;-65
2022/06/12 02:06:14;;;;;;;649.20;616.85;;;15.90;99.90;;;15.94;100.00;101257.00;5011781;28;20234;-64
2022/06/12 02:09:02;;;;;;;688.80;653.15;;;15.80;99.90;;;16.12;100.00;101250.78;5043666;28;20709;-65
2022/06/12 02:14:42;;;;;;;670.03;635.55;;;15.90;99.90;;;16.27;100.00;101216.06;5045544;28;20202;-64
2022/06/12 02:17:18;;;;;;;659.67;626.13;;;16.00;99.90;;;16.18;100.00;101208.97;5014340;28;20598;-65
2022/06/12 02:19:48;;;;;;;626.17;595.92;;;16.00;99.90;;;16.02;100.00;101211.66;4990947;28;20202;-64
2022/06/12 02:22:25;;;;;;;609.95;580.97;;;16.00;99.90;;;15.87;100.00;101226.78;5025891;28;20229;-64
2022/06/12 02:25:03;;;;;;;647.33;614.63;;;15.90;99.90;;;15.87;100.00;101232.13;5030442;28;20213;-64
2022/06/12 02:27:40;;;;;;;600.25;571.58;;;15.90;99.90;;;15.95;100.00;101234.78;5028762;28;20215;-65
2022/06/12 02:30:28;;;;;;;599.45;570.58;;;15.90;99.90;;;15.90;100.00;101223.22;5022860;28;20214;-64
2022/06/12 02:33:21;;;;;;;607.05;577.88;;;15.80;99.90;;;15.91;100.00;101220.56;5031171;28;20201;-64
2022/06/12 02:35:59;;;;;;;632.20;601.10;;;15.80;99.90;;;15.74;100.00;101234.78;5031650;28;20221;-65
2022/06/12 02:38:33;;;;;;;650.90;619.53;;;15.80;99.90;;;15.87;100.00;101244.56;5019110;28;20209;-64
2022/06/12 02:41:44;;;;;;;627.20;597.50;;;15.80;99.90;;;15.98;100.00;101251.69;5023898;28;20225;-64
2022/06/12 02:44:29;;;;;;;664.42;630.78;;;15.80;99.90;;;15.97;100.00;101249.91;5049222;28;20198;-64
2022/06/12 02:47:09;;;;;;;666.30;632.35;;;15.80;99.90;;;15.70;100.00;101225.88;5036761;28;20244;-65
2022/06/12 02:49:39;;;;;;;666.28;632.30;;;15.80;99.90;;;15.71;100.00;101241.00;4995848;28;20206;-65
2022/06/12 02:52:24;;;;;;;676.78;642.25;;;15.70;99.90;;;15.67;100.00;101248.09;5027080;28;20593;-64
2022/06/12 02:55:24;;;;;;;669.08;634.28;;;15.70;99.90;;;15.69;100.00;101253.44;5027116;28;20206;-64
2022/06/12 02:58:28;;;;;;;630.88;599.03;;;15.60;99.90;;;15.56;100.00;101251.56;5006070;28;20233;-65
2022/06/12 03:01:11;;;;;;;621.53;590.65;;;15.60;99.90;;;15.52;100.00;101247.13;5043296;28;20245;-65
2022/06/12 03:03:51;;;;;;;641.25;609.13;;;15.50;99.90;;;15.48;100.00;101251.56;5023507;28;20218;-65
2022/06/12 03:06:20;;;;;;;646.88;614.45;;;15.50;99.90;;;15.41;100.00;101259.53;5037769;28;20213;-64
2022/06/12 03:08:50;;;;;;;613.45;583.30;;;15.40;99.90;;;15.21;100.00;101279.03;5021481;28;20210;-64
2022/06/12 03:11:22;;;;;;;620.67;590.25;;;15.40;99.90;;;15.21;100.00;101278.13;5025581;28;20226;-64
2022/06/12 03:13:54;;;;;;;661.35;626.75;;;15.30;99.90;;;15.24;100.00;101287.03;5024832;28;20207;-64
2022/06/12 03:16:27;;;;;;;661.78;627.20;;;15.30;99.90;;;15.22;100.00;101291.47;5020818;28;20217;-64
2022/06/12 03:19:04;;;;;;;624.45;593.28;;;15.30;99.90;;;15.42;100.00;101286.19;5013426;28;20208;-65
2022/06/12 03:21:58;;;;;;;612.63;582.05;;;15.30;99.90;;;15.43;100.00;101281.75;5022209;28;20328;-64
2022/06/12 03:24:36;;;;;;;620.50;589.45;;;15.30;99.90;;;15.28;100.00;101282.59;5010476;28;20206;-64
2022/06/12 03:27:43;;;;;;;653.88;620.08;;;15.30;99.90;;;15.10;100.00;101296.75;5025045;28;20229;-64
2022/06/12 03:30:25;;;;;;;622.55;591.50;;;15.20;99.90;;;15.19;100.00;101303.91;5026858;28;20213;-64
2022/06/12 03:33:13;;;;;;;627.63;595.92;;;15.20;99.90;;;15.12;100.00;101294.09;5013505;28;20219;-64
2022/06/12 03:36:02;;;;;;;618.45;587.88;;;15.20;99.90;;;15.19;100.00;101302.13;5026861;28;20210;-64
2022/06/12 03:38:57;;;;;;;657.55;622.90;;;15.10;99.90;;;15.00;100.00;101313.56;5026035;28;20198;-65
2022/06/12 03:42:09;;;;;;;632.00;599.55;;;15.10;99.90;;;15.13;100.00;101315.41;5038595;28;20219;-64
2022/06/12 03:45:28;;;;;;;623.28;591.33;;;15.00;99.90;;;15.10;100.00;101326.06;5024662;28;20210;-65
2022/06/12 03:48:30;;;;;;;629.92;597.50;;;15.00;99.90;;;15.11;100.00;101338.50;5011598;28;20222;-65
2022/06/12 03:51:23;;;;;;;638.33;604.55;;;15.00;99.90;;;15.31;100.00;101328.81;5010239;28;20237;-64
2022/06/12 03:54:08;;;;;;;661.42;623.55;;;15.10;99.90;;;15.27;100.00;101339.47;5026140;28;20197;-64
2022/06/12 04:00:00;;;;;;;660.50;623.90;;;15.20;99.90;;;15.48;100.00;101328.88;5024889;28;20214;-65
2022/06/12 04:02:30;;;;;;;632.13;599.38;;;15.20;99.90;;;15.52;100.00;101335.09;5014586;28;20222;-64
2022/06/12 04:05:00;;;;;;;618.95;587.65;;;15.30;99.90;;;15.44;100.00;101331.53;5021831;28;20209;-64
2022/06/12 04:07:30;;;;;;;605.10;575.33;;;15.30;99.90;;;15.40;100.00;101349.28;5011167;28;20741;-65
2022/06/12 04:10:02;;;;;;;612.72;582.58;;;15.30;99.90;;;15.36;100.00;101360.81;5041174;28;20214;-64
2022/06/12 04:12:33;;;;;;;598.00;568.53;;;15.30;99.90;;;15.38;100.00;101383.03;5029517;28;20306;-65
2022/06/12 04:15:31;;;;;;;637.45;604.92;;;15.30;99.90;;;15.59;100.00;101379.59;5007137;28;20199;-64
2022/06/12 04:18:00;;;;;;;624.60;592.22;;;15.40;99.90;;;15.81;100.00;101388.59;5010406;28;20594;-64
2022/06/12 04:20:38;;;;;;;641.45;607.85;;;15.50;99.90;;;15.93;100.00;101362.84;5012634;28;20209;-65
2022/06/12 04:23:27;;;;;;;640.72;607.90;;;15.60;99.90;;;16.07;100.00;101386.88;5027768;28;20551;-64
2022/06/12 04:26:12;;;;;;;616.53;584.90;;;15.70;99.90;;;16.19;100.00;101392.22;5015988;28;20205;-65
2022/06/12 04:28:44;;;;;;;617.22;586.80;;;15.90;99.90;;;16.34;100.00;101359.31;5025596;28;20236;-63
2022/06/12 04:31:19;;;;;;;640.78;608.00;;;16.00;99.90;;;16.44;100.00;101345.06;5035389;28;20230;-65
2022/06/12 04:34:28;;;;;;;683.17;646.25;;;16.10;99.90;;;16.46;100.00;101313.03;5007617;28;20213;-64
2022/06/12 04:37:11;;;;;;;648.47;614.85;;;16.10;99.90;;;16.63;100.00;101313.91;5025459;28;20201;-64
2022/06/12 04:39:40;;;;;;;642.33;609.28;;;16.20;99.90;;;16.64;100.00;101308.56;5031439;28;20620;-64
2022/06/12 04:42:08;;;;;;;655.17;621.45;;;16.30;99.90;;;16.64;100.00;101296.97;5001393;28;20226;-64
2022/06/12 04:44:36;;;;;;;661.88;628.95;;;16.20;99.90;;;16.76;100.00;101305.00;5024124;28;20483;-64
2022/06/12 04:47:06;;;;;;;670.70;636.47;;;16.30;99.90;;;16.90;100.00;101318.31;5004685;28;20205;-64
2022/06/12 04:49:36;;;;;;;699.53;661.92;;;16.40;99.90;;;16.96;100.00;101318.34;5023474;28;20210;-64
2022/06/12 04:52:07;;;;;;;688.55;652.78;;;16.50;99.90;;;17.14;100.00;101333.41;5027187;28;20221;-65
2022/06/12 04:54:38;;;;;;;692.45;656.80;;;16.60;99.90;;;17.36;100.00;101335.09;5013102;28;20544;-64
2022/06/12 04:57:08;;;;;;;697.17;661.38;;;16.70;99.90;;;17.54;100.00;101332.34;4998657;28;20191;-65
2022/06/12 04:59:37;;;;;;;696.60;660.38;;;16.90;99.90;;;17.74;100.00;101342.06;5011187;28;20216;-64
2022/06/12 05:02:06;;;;;;;716.42;678.65;;;17.10;99.90;;;17.83;100.00;101331.31;5017045;28;20245;-64
2022/06/12 05:04:35;;;;;;;750.17;709.00;;;17.20;99.90;;;18.00;100.00;101342.78;5031834;28;20238;-66
2022/06/12 05:07:05;;;;;;;729.90;691.90;;;17.20;99.90;;;18.07;100.00;101330.25;5018035;28;20219;-66
2022/06/12 05:09:35;;;;;;;729.05;691.63;;;17.40;99.90;;;18.13;100.00;101331.09;4997969;28;20221;-65
2022/06/12 05:12:04;;;;;;;760.58;719.78;;;17.60;99.90;;;18.14;100.00;101319.50;5027929;28;20221;-66
2022/06/12 05:14:32;;;;;;;725.20;688.40;;;17.60;99.90;;;18.31;100.00;101324.75;5023053;28;20884;-66
2022/06/12 05:17:05;;;;;;;727.50;690.45;;;17.60;99.90;;;18.49;100.00;101326.38;5027387;28;20203;-65
2022/06/12 05:19:37;;;;;;;724.58;687.80;;;17.70;99.90;;;18.68;100.00;101348.53;5011242;28;20210;-67
2022/06/12 05:22:07;;;;;;;742.40;704.55;;;17.80;99.90;;;18.76;100.00;101327.91;5014573;28;20217;-66
2022/06/12 05:24:36;;;;;;;751.15;712.65;;;17.80;99.90;;;18.99;100.00;101341.06;5001587;28;20211;-66
2022/06/12 05:27:07;;;;;;;753.95;715.80;;;18.00;99.90;;;19.09;100.00;101353.47;5037663;28;20206;-65
2022/06/12 05:29:40;;;;;;;765.67;726.35;;;18.10;99.90;;;19.10;100.00;101345.41;5016863;28;20230;-65
2022/06/12 05:32:12;;;;;;;793.05;751.33;;;18.30;99.90;;;19.09;100.00;101337.38;5041192;28;20217;-67
2022/06/12 05:34:40;;;;;;;798.05;755.08;;;18.50;99.90;;;19.24;100.00;101333.63;5028249;28;20217;-66
2022/06/12 05:37:10;;;;;;;765.63;726.40;;;18.50;99.90;;;19.30;100.00;101325.50;5032620;28;20207;-67
2022/06/12 05:39:39;;;;;;;758.47;719.30;;;18.60;99.90;;;19.43;100.00;101324.44;5023980;28;20210;-67
2022/06/12 05:42:07;;;;;;;803.22;760.42;;;18.70;99.90;;;19.53;100.00;101317.22;5037522;28;20229;-66
2022/06/12 05:44:37;;;;;;;718.28;682.47;;;18.80;99.90;;;19.69;100.00;101314.28;4997313;28;20206;-65
2022/06/12 05:47:09;;;;;;;806.90;764.47;;;18.90;99.90;;;19.82;100.00;101304.25;5038881;28;20213;-65
2022/06/12 05:49:37;;;;;;;767.15;728.80;;;19.00;99.90;;;19.92;100.00;101281.72;5029445;28;20225;-66
2022/06/12 05:52:05;;;;;;;783.03;743.53;;;19.20;99.90;;;20.01;100.00;101280.69;5029008;28;20576;-65
2022/06/12 05:54:33;;;;;;;757.40;719.03;;;19.30;99.90;;;20.22;100.00;101284.81;5033157;28;20202;-67
2022/06/12 05:57:01;;;;;;;767.40;728.85;;;19.50;99.90;;;20.41;100.00;101287.19;5021436;28;20210;-66
2022/06/12 05:59:29;;;;;;;762.10;724.35;;;19.60;99.90;;;20.59;100.00;101280.59;5035459;28;20209;-66
2022/06/12 06:01:57;;;;;;;784.28;745.08;;;19.70;99.90;;;20.62;100.00;101261.72;5063522;28;20218;-67
2022/06/12 06:04:25;;;;;;;831.95;788.50;;;19.90;99.90;;;20.65;100.00;101258.09;5038979;28;20626;-65
2022/06/12 06:06:58;;;;;;;830.78;787.45;;;20.00;99.90;;;20.80;100.00;101260.47;5007941;28;20232;-65
2022/06/12 06:09:27;;;;;;;762.60;724.50;;;20.20;99.90;;;20.89;100.00;101241.50;5022280;28;20229;-66
2022/06/12 06:11:55;;;;;;;850.83;806.45;;;20.30;99.90;;;21.22;100.00;101258.75;5024000;28;20590;-65
2022/06/12 06:14:23;;;;;;;816.08;774.85;;;20.50;99.90;;;21.25;100.00;101215.66;5053552;28;20220;-65
2022/06/12 06:16:51;;;;;;;852.67;808.28;;;20.60;99.90;;;21.54;100.00;101192.56;5031746;28;20222;-66
2022/06/12 06:19:19;;;;;;;870.00;824.67;;;20.80;99.90;;;21.68;100.00;101137.44;5050004;28;20570;-67
2022/06/12 06:21:47;;;;;;;788.13;746.85;;;20.90;99.90;;;21.80;100.00;101109.31;5014505;28;20234;-66
2022/06/12 06:24:15;;;;;;;777.30;737.33;;;21.10;99.90;;;22.04;100.00;101097.03;5027021;28;20204;-65
2022/06/12 06:26:44;;;;;;;810.97;767.33;;;21.30;99.90;;;22.06;100.00;101075.44;5036100;28;20210;-67
2022/06/12 06:29:12;;;;;;;807.15;765.03;;;21.50;99.90;;;21.83;99.03;101024.91;5019374;28;20581;-67
2022/06/12 06:31:41;;;;;;;801.67;761.28;;;21.50;99.90;;;21.91;99.49;101030.94;5044086;28;20591;-66
2022/06/12 06:34:09;;;;;;;813.72;770.63;;;21.50;99.90;;;21.92;98.18;101020.13;5027458;28;20206;-66
2022/06/12 06:36:37;;;;;;;885.58;839.30;;;21.60;99.90;;;22.20;97.23;101031.06;5018423;28;20205;-66
2022/06/12 06:39:06;;;;;;;867.70;821.90;;;21.70;99.90;;;22.41;99.11;101044.81;4998893;28;20206;-65
2022/06/12 06:41:34;;;;;;;849.20;803.20;;;21.90;99.90;;;22.75;96.20;101039.28;5042610;28;20235;-67
2022/06/12 06:46:49;;;;;;;856.28;808.42;;;22.30;99.90;;;22.87;95.99;100999.34;5038047;28;20213;-66
2022/06/12 06:49:21;;;;;;;836.03;790.05;;;22.50;99.90;;;22.50;93.61;100932.22;5025000;28;20214;-65
2022/06/12 06:51:50;;;;;;;838.28;792.60;;;22.40;99.90;;;22.68;91.62;100931.63;5053852;28;20221;-65
2022/06/12 06:54:19;;;;;;;833.78;788.88;;;22.40;99.90;;;22.92;91.04;100920.97;5005462;28;20202;-66
2022/06/12 06:56:47;;;;;;;798.42;755.05;;;22.60;99.90;;;23.06;91.85;100937.56;5036733;28;20577;-66
2022/06/12 06:59:16;;;;;;;849.83;804.20;;;22.70;99.90;;;23.16;91.35;100913.84;5025736;28;20243;-66
2022/06/12 07:01:45;;;;;;;848.10;802.05;;;22.90;99.90;;;23.03;89.79;100875.63;5027497;28;20225;-66
2022/06/12 07:04:14;;;;;;;846.63;800.22;;;22.90;99.90;;;23.01;89.39;100850.53;5031878;28;20204;-66
2022/06/12 07:06:44;;;;;;;823.30;777.80;;;23.00;99.90;;;22.91;90.26;100835.59;5023316;28;20209;-66
2022/06/12 07:09:19;;;;;;;840.60;794.53;;;23.00;99.90;;;23.61;89.50;100925.75;5017129;28;20219;-67
2022/06/12 07:11:47;;;;;;;845.58;799.33;;;23.20;99.90;;;23.27;87.94;100839.66;5023671;28;20241;-66
2022/06/12 07:14:15;;;;;;;862.08;814.63;;;23.20;99.90;;;23.32;88.33;100852.97;5045948;28;20780;-66
2022/06/12 07:16:43;;;;;;;874.47;826.45;;;23.20;99.90;;;23.23;88.40;100816.44;5023790;28;20194;-67
2022/06/12 07:19:11;;;;;;;870.60;822.50;;;23.30;99.90;;;23.18;88.29;100799.53;5023369;28;20213;-67
2022/06/12 07:21:39;;;;;;;893.78;844.65;;;23.30;99.90;;;23.12;90.25;100809.66;5028910;28;20232;-66
2022/06/12 07:24:08;;;;;;;950.38;896.88;;;23.40;99.90;;;23.92;91.03;100913.78;5027693;28;20200;-66
2022/06/12 07:26:39;;;;;;;855.63;805.70;;;23.60;99.90;;;23.59;90.81;100845.75;5035368;28;20239;-65
2022/06/12 07:29:08;;;;;;;886.13;834.55;;;23.70;99.90;;;23.78;90.21;100856.72;5016252;28;20225;-66
2022/06/12 07:31:37;;;;;;;938.55;886.70;;;24.00;99.90;;;23.47;90.47;100806.56;5011380;28;20229;-65
2022/06/12 07:34:06;;;;;;;990.58;935.65;;;24.10;99.90;;;23.82;90.94;100855.66;5016044;28;20222;-66
2022/06/12 07:36:44;;;;;;;1046.60;986.88;;;24.40;99.90;;;24.03;89.12;100829.59;5028391;28;20204;-65
2022/06/12 07:39:19;;;;;;;1003.08;946.63;;;24.50;99.90;;;23.91;88.62;100803.97;5013682;28;20206;-67
2022/06/12 07:41:50;;;;;;;982.63;928.22;;;24.60;99.90;;;24.25;87.94;100823.25;5019529;28;20228;-66
2022/06/12 07:44:22;;;;;;;970.60;917.17;;;24.60;99.90;;;24.05;86.66;100752.94;5029012;28;20588;-66
2022/06/12 07:46:54;;;;;;;989.33;934.22;;;24.70;99.90;;;24.05;86.93;100746.66;5021626;28;20224;-65
2022/06/12 07:49:26;;;;;;;1063.63;998.80;;;24.50;99.90;;;24.47;87.20;100801.66;5033526;28;20222;-66
2022/06/12 07:51:56;;;;;;;1073.32;999.90;;;24.80;99.90;;;24.57;87.82;100777.81;5028137;28;20217;-65
2022/06/12 07:54:25;;;;;;;1056.13;995.42;;;24.60;99.90;;;24.13;87.71;100710.28;5050846;28;20232;-65
2022/06/12 07:56:52;;;;;;;1071.90;999.90;;;24.90;99.90;;;24.30;90.29;100760.06;5018276;28;20205;-65
2022/06/12 07:59:21;;;;;;;1029.80;971.88;;;24.60;99.90;;;24.81;87.98;100795.69;5048401;28;20567;-65
2022/06/12 08:01:50;;;;;;;1053.30;993.83;;;25.00;99.90;;;24.27;87.51;100692.63;5015977;28;20225;-65
2022/06/12 08:04:19;;;;;;;1076.00;999.90;;;25.00;99.90;;;24.99;87.79;100791.31;5006257;28;20221;-66
2022/06/12 08:06:49;;;;;;;1072.57;999.90;;;25.40;99.90;;;25.57;87.28;100833.78;5031621;28;20217;-66
2022/06/12 08:09:18;;;;;;;1013.67;956.20;;;25.60;99.90;;;25.26;86.96;100748.59;4998323;28;20218;-67
2022/06/12 08:11:50;;;;;;;886.17;835.17;;;25.60;99.90;;;25.20;85.33;100703.72;4990445;28;20222;-67
2022/06/12 08:14:22;;;;;;;869.53;819.15;;;25.90;99.90;;;24.81;86.87;100656.84;5040951;28;20216;-66
2022/06/12 08:16:51;;;;;;;890.38;838.95;;;25.70;99.90;;;25.11;87.19;100716.81;5025476;28;20206;-66
2022/06/12 08:22:08;;;;;;;913.60;860.22;;;26.40;99.90;;;25.13;83.59;100631.91;5048080;28;20225;-65
2022/06/12 08:24:37;;;;;;;893.00;841.13;;;26.50;99.90;;;24.91;85.73;100619.44;5016305;28;20194;-65
2022/06/12 08:27:06;;;;;;;1084.60;999.90;;;25.90;99.90;;;24.77;85.23;100593.03;5012932;28;20197;-65
2022/06/12 08:29:34;;;;;;;915.60;862.60;;;25.90;99.90;;;25.30;84.10;100649.16;5015905;28;20229;-66
2022/06/12 08:32:07;;;;;;;824.08;775.28;;;26.00;99.90;;;25.20;84.65;100629.78;5067876;28;20216;-66
2022/06/12 08:34:42;;;;;;;807.15;759.33;;;25.90;99.90;;;25.54;82.03;100647.94;5041947;28;20197;-64
2022/06/12 08:37:20;;;;;;;874.47;822.95;;;26.20;99.90;;;25.37;84.26;100628.94;5009606;28;20202;-64
2022/06/12 08:39:49;;;;;;;790.25;743.00;;;26.30;99.90;;;25.46;85.07;100628.50;5030652;28;20210;-66
2022/06/12 08:42:41;;;;;;;783.58;736.88;;;26.30;99.90;;;25.29;84.40;100594.13;5016125;28;20225;-64
2022/06/12 08:45:25;;;;;;;859.80;809.13;;;26.00;99.90;;;25.86;83.39;100631.94;5011723;28;20193;-64
2022/06/12 08:48:11;;;;;;;858.72;808.00;;;26.30;99.90;;;25.75;79.92;100562.94;5015936;28;20231;-65
2022/06/12 08:51:02;;;;;;;977.97;921.78;;;26.80;99.90;;;26.74;79.74;100628.19;5011707;28;20218;-65
2022/06/12 08:53:38;;;;;;;1007.33;947.28;;;27.20;99.90;;;26.12;76.58;100482.44;5003774;28;20204;-65
2022/06/12 08:56:27;;;;;;;1094.90;999.90;;;26.70;99.90;;;26.09;82.75;100547.66;5012842;28;20290;-64
2022/06/12 08:59:14;;;;;;;793.30;745.75;;;26.70;99.90;;;26.96;78.89;100589.00;5016432;28;20201;-65
2022/06/12 09:01:43;;;;;;;889.47;836.55;;;27.30;99.90;;;26.91;77.27;100547.66;5038138;28;20221;-66
2022/06/12 09:04:18;;;;;;;911.85;856.83;;;27.80;99.90;;;26.57;77.79;100459.19;5034315;28;20197;-65
2022/06/12 09:07:13;;;;;;;1077.45;999.90;;;28.40;99.90;;;26.88;77.43;100494.44;5025493;28;20207;-67
2022/06/12 09:10:29;;;;;;;1136.53;999.90;;;29.20;99.90;;;27.79;74.31;100424.81;5018215;28;20233;-66
2022/06/12 09:13:12;;;;;;;913.03;857.60;;;28.40;99.90;;;26.71;77.23;100388.72;4968571;28;20210;-66
2022/06/12 09:15:52;;;;;;;1053.95;992.03;;;28.80;99.90;;;27.08;73.73;100373.88;5016344;28;20204;-65
2022/06/12 09:18:42;;;;;;;968.42;910.03;;;29.10;99.90;;;27.50;74.40;100403.00;5015422;28;21250;-65
2022/06/12 09:22:02;;;;;;;863.53;810.03;;;28.90;99.90;;;27.22;76.36;100387.50;5018594;28;20225;-65
2022/06/12 09:25:07;;;;;;;930.55;873.78;;;28.90;99.90;;;27.81;74.19;100410.16;4972169;28;20211;-66
2022/06/12 09:27:51;;;;;;;941.88;883.45;;;29.40;99.90;;;27.79;73.64;100378.63;4961914;28;20227;-65
2022/06/12 09:30:53;;;;;;;809.08;758.30;;;29.90;99.90;;;27.61;73.33;100310.00;5020604;28;20242;-66
2022/06/12 09:33:50;;;;;;;774.28;725.72;;;29.40;99.90;;;27.55;75.77;100327.53;5020191;28;20689;-65
2022/06/12 09:36:34;;;;;;;805.22;755.05;;;28.90;99.90;;;28.13;75.36;100412.69;5044120;28;20194;-65
2022/06/12 09:39:54;;;;;;;964.05;904.38;;;29.90;99.90;;;28.55;71.24;100351.91;5043929;28;20208;-65
2022/06/12 09:42:28;;;;;;;856.65;802.67;;;30.10;99.90;;;28.22;73.33;100304.19;4969398;28;20313;-66
2022/06/12 09:45:10;;;;;;;898.00;841.42;;;30.20;99.90;;;28.40;73.94;100336.59;5033494;28;20206;-66
2022/06/12 09:47:53;;;;;;;1094.43;999.90;;;29.40;99.90;;;28.46;75.52;100363.41;5027235;28;20193;-66
2022/06/12 09:50:57;;;;;;;1039.10;975.50;;;30.00;99.90;;;28.21;75.09;100305.16;5024384;28;20220;-66
2022/06/12 09:53:59;;;;;;;1167.82;999.90;;;30.50;99.90;;;28.64;75.42;100329.56;5045869;28;20865;-66
2022/06/12 09:56:57;;;;;;;1202.30;999.90;;;30.80;99.90;;;29.82;74.76;100462.13;5033111;28;20214;-65
2022/06/12 09:59:45;;;;;;;1207.82;999.90;;;31.90;99.90;;;30.28;72.09;100420.69;4991875;28;20213;-66
2022/06/12 10:02:31;;;;;;;1221.68;999.90;;;32.80;99.90;;;31.35;69.39;100434.56;5009184;28;20610;-66
2022/06/12 10:05:29;;;;;;;1123.38;999.90;;;33.50;99.90;;;30.73;69.96;100281.81;5029283;28;20583;-65
2022/06/12 10:08:07;;;;;;;515.05;480.95;;;33.20;99.90;;;30.07;70.66;100232.22;4980393;28;20221;-65
2022/06/12 10:11:17;;;;;;;793.55;741.70;;;33.70;99.90;;;31.16;67.56;100269.28;5044000;28;20225;-65
2022/06/12 10:14:11;;;;;;;1154.53;999.90;;;34.00;99.90;;;31.58;67.13;100280.53;5012523;28;20198;-65
2022/06/12 10:17:01;;;;;;;861.80;805.33;;;32.60;99.90;;;30.15;71.46;100221.59;5049181;28;20210;-65
2022/06/12 10:19:58;;;;;;;1086.68;999.90;;;32.90;99.90;;;30.82;70.46;100251.06;5046765;28;20220;-65
2022/06/12 10:22:25;;;;;;;1186.00;999.90;;;33.50;99.90;;;31.15;70.32;100262.09;5021936;28;20240;-65
2022/06/12 10:24:56;;;;;;;1122.80;999.90;;;33.30;99.90;;;30.82;71.88;100224.63;5034079;28;20210;-66
2022/06/12 10:27:26;;;;;;;1108.82;999.90;;;33.60;99.90;;;30.47;67.84;100090.91;5033596;28;20280;-66
2022/06/12 10:30:00;;;;;;;822.53;767.78;;;32.60;99.90;;;30.21;71.89;100138.44;5018408;28;20208;-65
2022/06/12 10:32:50;;;;;;;932.35;871.75;;;32.60;99.90;;;30.48;67.65;100116.31;5042050;28;20235;-66
2022/06/12 10:35:23;;;;;;;816.30;762.42;;;32.60;99.90;;;31.01;69.57;100185.81;5006377;28;20279;-65
2022/06/12 10:37:51;;;;;;;964.03;902.53;;;33.70;99.90;;;32.32;67.63;100259.84;5017979;28;20202;-65
2022/06/12 10:40:24;;;;;;;1100.55;999.90;;;34.70;99.90;;;32.20;67.97;100175.16;5022919;28;20200;-66